sensor_id;sensor_type;location;lat;lon;timestamp;temperature;humidity
44559;DHT22;30270;40.238;18.256;2022-11-20T00:01:18;19.90;99.90
44559;DHT22;30270;40.238;18.256;2022-11-20T00:03:46;19.80;99.90
44559;DHT22;30270;40.238;18.256;2022-11-20T00:06:16;19.80;99.90
44559;DHT22;30270;40.238;18.256;2022-11-20T00:08:45;19.80;99.90
44559;DHT22;30270;40.238;18.256;2022-11-20T00:11:21;19.80;99.90
44559;DHT22;30270;40.238;18.256;2022-11-20T00:13:52;19.70;99.90
44559;DHT22;30270;40.238;18.256;2022-11-20T00:16:22;19.70;99.90
44559;DHT22;30270;40.238;18.256;2022-11-20T00:18:51;19.70;99.90
44559;DHT22;30270;40.238;18.256;2022-11-20T00:21:26;19.70;99.90
44559;DHT22;30270;40.238;18.256;2022-11-20T00:23:55;19.70;99.90
44559;DHT22;30270;40.238;18.256;2022-11-20T00:26:25;19.70;99.90
44559;DHT22;30270;40.238;18.256;2022-11-20T00:28:55;19.70;99.90
44559;DHT22;30270;40.238;18.256;2022-11-20T00:31:23;19.70;99.90
44559;DHT22;30270;40.238;18.256;2022-11-20T00:33:51;19.70;99.90
44559;DHT22;30270;40.238;18.256;2022-11-20T00:36:20;19.70;99.90
44559;DHT22;30270;40.238;18.256;2022-11-20T00:38:56;19.70;99.90
44559;DHT22;30270;40.238;18.256;2022-11-20T00:41:26;19.70;99.90
44559;DHT22;30270;40.238;18.256;2022-11-20T00:43:55;19.70;99.90
44559;DHT22;30270;40.238;18.256;2022-11-20T00:46:26;19.70;99.90
44559;DHT22;30270;40.238;18.256;2022-11-20T00:48:55;19.70;99.90
44559;DHT22;30270;40.238;18.256;2022-11-20T00:51:24;19.70;99.90
44559;DHT22;30270;40.238;18.256;2022-11-20T00:53:54;19.70;99.90
44559;DHT22;30270;40.238;18.256;2022-11-20T00:56:22;19.70;99.90
44559;DHT22;30270;40.238;18.256;2022-11-20T00:58:50;19.70;99.90
44559;DHT22;30270;40.238;18.256;2022-11-20T01:01:18;19.70;99.90
44559;DHT22;30270;40.238;18.256;2022-11-20T01:03:48;19.70;99.90
44559;DHT22;30270;40.238;18.256;2022-11-20T01:06:18;19.70;99.90
44559;DHT22;30270;40.238;18.256;2022-11-20T01:08:47;19.70;99.90
44559;DHT22;30270;40.238;18.256;2022-11-20T01:11:20;19.70;99.90
44559;DHT22;30270;40.238;18.256;2022-11-20T01:13:50;19.80;99.90
44559;DHT22;30270;40.238;18.256;2022-11-20T01:16:18;19.60;99.90
44559;DHT22;30270;40.238;18.256;2022-11-20T01:18:49;19.00;99.90
44559;DHT22;30270;40.238;18.256;2022-11-20T01:21:22;18.80;99.90
44559;DHT22;30270;40.238;18.256;2022-11-20T01:23:51;18.80;99.90
44559;DHT22;30270;40.238;18.256;2022-11-20T01:26:24;19.10;99.90
44559;DHT22;30270;40.238;18.256;2022-11-20T01:28:52;18.90;99.90
44559;DHT22;30270;40.238;18.256;2022-11-20T01:31:26;18.70;99.90
44559;DHT22;30270;40.238;18.256;2022-11-20T01:33:56;18.80;99.90
44559;DHT22;30270;40.238;18.256;2022-11-20T01:36:26;18.80;99.90
44559;DHT22;30270;40.238;18.256;2022-11-20T01:38:56;19.00;99.90
44559;DHT22;30270;40.238;18.256;2022-11-20T01:41:25;19.20;99.90
44559;DHT22;30270;40.238;18.256;2022-11-20T01:44:13;19.10;99.90
44559;DHT22;30270;40.238;18.256;2022-11-20T01:46:56;19.10;99.90
44559;DHT22;30270;40.238;18.256;2022-11-20T01:49:34;19.00;99.90
44559;DHT22;30270;40.238;18.256;2022-11-20T01:52:35;19.10;99.90
44559;DHT22;30270;40.238;18.256;2022-11-20T01:55:07;19.30;99.90
44559;DHT22;30270;40.238;18.256;2022-11-20T01:57:37;19.30;99.90
44559;DHT22;30270;40.238;18.256;2022-11-20T02:00:12;19.40;99.90
44559;DHT22;30270;40.238;18.256;2022-11-20T02:02:48;19.40;99.90
44559;DHT22;30270;40.238;18.256;2022-11-20T02:05:21;19.40;99.90
44559;DHT22;30270;40.238;18.256;2022-11-20T02:07:50;19.40;99.90
44559;DHT22;30270;40.238;18.256;2022-11-20T02:10:18;19.40;99.90
44559;DHT22;30270;40.238;18.256;2022-11-20T02:12:45;19.40;99.90
44559;DHT22;30270;40.238;18.256;2022-11-20T02:15:33;19.30;99.90
44559;DHT22;30270;40.238;18.256;2022-11-20T02:18:01;19.30;99.90
44559;DHT22;30270;40.238;18.256;2022-11-20T02:20:28;19.30;99.90
44559;DHT22;30270;40.238;18.256;2022-11-20T02:25:24;19.40;99.90
44559;DHT22;30270;40.238;18.256;2022-11-20T02:27:53;19.30;99.90
44559;DHT22;30270;40.238;18.256;2022-11-20T02:30:21;19.30;99.90
44559;DHT22;30270;40.238;18.256;2022-11-20T02:32:48;19.20;99.90
44559;DHT22;30270;40.238;18.256;2022-11-20T02:37:49;19.10;99.90
44559;DHT22;30270;40.238;18.256;2022-11-20T02:40:17;19.20;99.90
44559;DHT22;30270;40.238;18.256;2022-11-20T02:42:45;19.20;99.90
44559;DHT22;30270;40.238;18.256;2022-11-20T02:45:12;19.20;99.90
44559;DHT22;30270;40.238;18.256;2022-11-20T02:47:39;19.20;99.90
44559;DHT22;30270;40.238;18.256;2022-11-20T02:50:07;19.20;99.90
44559;DHT22;30270;40.238;18.256;2022-11-20T02:52:35;19.30;99.90
44559;DHT22;30270;40.238;18.256;2022-11-20T02:55:03;19.20;99.90
44559;DHT22;30270;40.238;18.256;2022-11-20T02:57:30;19.20;99.90
44559;DHT22;30270;40.238;18.256;2022-11-20T02:59:58;19.10;99.90
44559;DHT22;30270;40.238;18.256;2022-11-20T03:02:27;19.20;99.90
44559;DHT22;30270;40.238;18.256;2022-11-20T03:04:56;19.10;99.90
44559;DHT22;30270;40.238;18.256;2022-11-20T03:07:24;18.90;99.90
44559;DHT22;30270;40.238;18.256;2022-11-20T03:15:05;18.50;99.90
44559;DHT22;30270;40.238;18.256;2022-11-20T03:17:33;17.60;99.90
44559;DHT22;30270;40.238;18.256;2022-11-20T03:20:04;17.30;99.90
44559;DHT22;30270;40.238;18.256;2022-11-20T03:22:32;17.30;99.90
44559;DHT22;30270;40.238;18.256;2022-11-20T03:25:00;17.50;99.90
44559;DHT22;30270;40.238;18.256;2022-11-20T03:32:49;16.40;99.90
44559;DHT22;30270;40.238;18.256;2022-11-20T03:35:23;15.70;99.90
44559;DHT22;30270;40.238;18.256;2022-11-20T03:37:51;15.60;99.90
44559;DHT22;30270;40.238;18.256;2022-11-20T03:40:19;15.70;99.90
44559;DHT22;30270;40.238;18.256;2022-11-20T03:42:46;15.70;99.90
44559;DHT22;30270;40.238;18.256;2022-11-20T03:45:16;15.80;99.90
44559;DHT22;30270;40.238;18.256;2022-11-20T03:47:44;16.00;99.90
44559;DHT22;30270;40.238;18.256;2022-11-20T03:50:13;16.20;99.90
44559;DHT22;30270;40.238;18.256;2022-11-20T03:52:41;16.40;99.90
44559;DHT22;30270;40.238;18.256;2022-11-20T03:55:09;16.50;99.90
44559;DHT22;30270;40.238;18.256;2022-11-20T03:57:37;16.70;99.90
44559;DHT22;30270;40.238;18.256;2022-11-20T04:00:05;16.70;99.90
44559;DHT22;30270;40.238;18.256;2022-11-20T04:02:33;16.60;99.90
44559;DHT22;30270;40.238;18.256;2022-11-20T04:05:00;16.50;99.90
44559;DHT22;30270;40.238;18.256;2022-11-20T04:07:28;16.50;99.90
44559;DHT22;30270;40.238;18.256;2022-11-20T04:09:55;16.50;99.90
44559;DHT22;30270;40.238;18.256;2022-11-20T04:12:23;16.50;99.90
44559;DHT22;30270;40.238;18.256;2022-11-20T04:14:50;16.50;99.90
44559;DHT22;30270;40.238;18.256;2022-11-20T04:17:17;16.60;99.90
44559;DHT22;30270;40.238;18.256;2022-11-20T04:19:45;16.70;99.90
44559;DHT22;30270;40.238;18.256;2022-11-20T04:22:13;16.80;99.90
44559;DHT22;30270;40.238;18.256;2022-11-20T04:24:40;16.90;99.90
44559;DHT22;30270;40.238;18.256;2022-11-20T04:27:08;17.00;99.90
44559;DHT22;30270;40.238;18.256;2022-11-20T04:29:35;17.10;99.90
44559;DHT22;30270;40.238;18.256;2022-11-20T04:32:03;17.20;99.90
44559;DHT22;30270;40.238;18.256;2022-11-20T04:34:30;17.40;99.90
44559;DHT22;30270;40.238;18.256;2022-11-20T04:36:58;17.50;99.90
44559;DHT22;30270;40.238;18.256;2022-11-20T04:39:25;17.60;99.90
44559;DHT22;30270;40.238;18.256;2022-11-20T04:41:53;17.70;99.90
44559;DHT22;30270;40.238;18.256;2022-11-20T04:44:40;17.90;99.90
44559;DHT22;30270;40.238;18.256;2022-11-20T04:47:07;18.00;99.90
44559;DHT22;30270;40.238;18.256;2022-11-20T04:49:35;18.10;99.90
44559;DHT22;30270;40.238;18.256;2022-11-20T04:52:03;18.10;99.90
44559;DHT22;30270;40.238;18.256;2022-11-20T04:54:30;18.10;99.90
44559;DHT22;30270;40.238;18.256;2022-11-20T04:56:58;18.20;99.90
44559;DHT22;30270;40.238;18.256;2022-11-20T04:59:25;18.20;99.90
44559;DHT22;30270;40.238;18.256;2022-11-20T05:01:52;18.20;99.90
44559;DHT22;30270;40.238;18.256;2022-11-20T05:04:20;18.20;99.90
44559;DHT22;30270;40.238;18.256;2022-11-20T05:06:47;18.10;99.90
44559;DHT22;30270;40.238;18.256;2022-11-20T05:09:16;18.10;99.90
44559;DHT22;30270;40.238;18.256;2022-11-20T05:11:43;18.00;99.90
44559;DHT22;30270;40.238;18.256;2022-11-20T05:14:13;18.00;99.90
44559;DHT22;30270;40.238;18.256;2022-11-20T05:16:40;18.00;99.90
44559;DHT22;30270;40.238;18.256;2022-11-20T05:19:09;18.10;99.90
44559;DHT22;30270;40.238;18.256;2022-11-20T05:21:36;18.10;99.90
44559;DHT22;30270;40.238;18.256;2022-11-20T05:24:04;18.10;99.90
44559;DHT22;30270;40.238;18.256;2022-11-20T05:26:31;18.10;99.90
44559;DHT22;30270;40.238;18.256;2022-11-20T05:28:59;18.00;99.90
44559;DHT22;30270;40.238;18.256;2022-11-20T05:31:26;18.00;99.90
44559;DHT22;30270;40.238;18.256;2022-11-20T05:33:55;18.10;99.90
44559;DHT22;30270;40.238;18.256;2022-11-20T05:36:23;18.10;99.90
44559;DHT22;30270;40.238;18.256;2022-11-20T05:38:51;18.00;99.90
44559;DHT22;30270;40.238;18.256;2022-11-20T05:41:20;18.00;99.90
44559;DHT22;30270;40.238;18.256;2022-11-20T05:43:48;18.00;99.90
44559;DHT22;30270;40.238;18.256;2022-11-20T05:46:19;17.90;99.90
44559;DHT22;30270;40.238;18.256;2022-11-20T05:48:49;17.90;99.90
44559;DHT22;30270;40.238;18.256;2022-11-20T05:51:18;17.90;99.90
44559;DHT22;30270;40.238;18.256;2022-11-20T05:53:46;17.90;99.90
44559;DHT22;30270;40.238;18.256;2022-11-20T05:56:16;18.00;99.90
44559;DHT22;30270;40.238;18.256;2022-11-20T05:58:45;18.00;99.90
44559;DHT22;30270;40.238;18.256;2022-11-20T06:01:20;18.00;99.90
44559;DHT22;30270;40.238;18.256;2022-11-20T06:03:48;18.00;99.90
44559;DHT22;30270;40.238;18.256;2022-11-20T06:06:18;18.00;99.90
44559;DHT22;30270;40.238;18.256;2022-11-20T06:08:46;18.00;99.90
44559;DHT22;30270;40.238;18.256;2022-11-20T06:11:15;18.00;99.90
44559;DHT22;30270;40.238;18.256;2022-11-20T06:13:43;18.00;99.90
44559;DHT22;30270;40.238;18.256;2022-11-20T06:16:14;18.00;99.90
44559;DHT22;30270;40.238;18.256;2022-11-20T06:18:42;18.00;99.90
44559;DHT22;30270;40.238;18.256;2022-11-20T06:21:12;18.00;99.90
44559;DHT22;30270;40.238;18.256;2022-11-20T06:23:40;18.00;99.90
44559;DHT22;30270;40.238;18.256;2022-11-20T06:26:17;18.00;99.90
44559;DHT22;30270;40.238;18.256;2022-11-20T06:28:45;18.10;99.90
44559;DHT22;30270;40.238;18.256;2022-11-20T06:31:14;18.00;99.90
44559;DHT22;30270;40.238;18.256;2022-11-20T06:33:42;18.10;99.90
44559;DHT22;30270;40.238;18.256;2022-11-20T06:36:11;18.10;99.90
44559;DHT22;30270;40.238;18.256;2022-11-20T06:38:40;18.10;99.90
44559;DHT22;30270;40.238;18.256;2022-11-20T06:41:12;18.10;99.90
44559;DHT22;30270;40.238;18.256;2022-11-20T06:43:40;18.10;99.90
44559;DHT22;30270;40.238;18.256;2022-11-20T06:46:10;18.10;99.90
44559;DHT22;30270;40.238;18.256;2022-11-20T06:48:38;18.10;99.90
44559;DHT22;30270;40.238;18.256;2022-11-20T06:51:07;18.10;99.90
44559;DHT22;30270;40.238;18.256;2022-11-20T06:53:35;18.20;99.90
44559;DHT22;30270;40.238;18.256;2022-11-20T06:56:03;18.20;99.90
44559;DHT22;30270;40.238;18.256;2022-11-20T06:58:32;18.20;99.90
44559;DHT22;30270;40.238;18.256;2022-11-20T07:01:03;18.20;99.90
44559;DHT22;30270;40.238;18.256;2022-11-20T07:03:31;18.20;99.90
44559;DHT22;30270;40.238;18.256;2022-11-20T07:06:00;18.20;99.90
44559;DHT22;30270;40.238;18.256;2022-11-20T07:08:29;18.20;99.90
44559;DHT22;30270;40.238;18.256;2022-11-20T07:10:58;18.20;99.90
44559;DHT22;30270;40.238;18.256;2022-11-20T07:13:27;18.20;99.90
44559;DHT22;30270;40.238;18.256;2022-11-20T07:15:59;18.20;99.90
44559;DHT22;30270;40.238;18.256;2022-11-20T07:18:28;18.20;99.90
44559;DHT22;30270;40.238;18.256;2022-11-20T07:20:55;18.20;99.90
44559;DHT22;30270;40.238;18.256;2022-11-20T07:23:23;18.30;99.90
44559;DHT22;30270;40.238;18.256;2022-11-20T07:25:50;18.30;99.90
44559;DHT22;30270;40.238;18.256;2022-11-20T07:28:18;18.40;99.90
44559;DHT22;30270;40.238;18.256;2022-11-20T07:30:53;18.50;99.90
44559;DHT22;30270;40.238;18.256;2022-11-20T07:33:20;18.50;99.90
44559;DHT22;30270;40.238;18.256;2022-11-20T07:35:48;18.50;99.90
44559;DHT22;30270;40.238;18.256;2022-11-20T07:38:15;18.60;99.90
44559;DHT22;30270;40.238;18.256;2022-11-20T07:40:42;18.70;99.90
44559;DHT22;30270;40.238;18.256;2022-11-20T07:43:10;18.70;99.90
44559;DHT22;30270;40.238;18.256;2022-11-20T07:45:38;18.70;99.90
44559;DHT22;30270;40.238;18.256;2022-11-20T07:48:05;18.70;99.90
44559;DHT22;30270;40.238;18.256;2022-11-20T07:50:33;18.70;99.90
44559;DHT22;30270;40.238;18.256;2022-11-20T07:53:02;18.70;99.90
44559;DHT22;30270;40.238;18.256;2022-11-20T07:55:31;18.80;99.90
44559;DHT22;30270;40.238;18.256;2022-11-20T07:57:59;18.80;99.90
44559;DHT22;30270;40.238;18.256;2022-11-20T08:00:27;18.80;99.90
44559;DHT22;30270;40.238;18.256;2022-11-20T08:02:54;18.80;99.90
44559;DHT22;30270;40.238;18.256;2022-11-20T08:05:22;18.90;99.90
44559;DHT22;30270;40.238;18.256;2022-11-20T08:07:49;18.90;99.90
44559;DHT22;30270;40.238;18.256;2022-11-20T08:10:17;18.90;99.90
44559;DHT22;30270;40.238;18.256;2022-11-20T08:12:47;18.90;99.90
44559;DHT22;30270;40.238;18.256;2022-11-20T08:15:33;18.90;99.90
44559;DHT22;30270;40.238;18.256;2022-11-20T08:18:09;19.00;99.90
44559;DHT22;30270;40.238;18.256;2022-11-20T08:21:02;19.10;99.90
44559;DHT22;30270;40.238;18.256;2022-11-20T08:23:31;19.10;99.90
44559;DHT22;30270;40.238;18.256;2022-11-20T08:25:58;19.20;99.90
44559;DHT22;30270;40.238;18.256;2022-11-20T08:28:26;19.20;99.90
44559;DHT22;30270;40.238;18.256;2022-11-20T08:30:58;19.30;99.90
44559;DHT22;30270;40.238;18.256;2022-11-20T08:33:26;19.40;99.90
44559;DHT22;30270;40.238;18.256;2022-11-20T08:36:01;19.50;99.90
44559;DHT22;30270;40.238;18.256;2022-11-20T08:38:30;19.70;99.90
44559;DHT22;30270;40.238;18.256;2022-11-20T08:41:03;19.90;99.90
44559;DHT22;30270;40.238;18.256;2022-11-20T08:43:51;19.90;99.90
44559;DHT22;30270;40.238;18.256;2022-11-20T08:46:19;20.10;99.90
44559;DHT22;30270;40.238;18.256;2022-11-20T08:48:47;20.00;99.90
44559;DHT22;30270;40.238;18.256;2022-11-20T08:51:16;20.00;99.90
44559;DHT22;30270;40.238;18.256;2022-11-20T08:53:44;19.90;99.90
44559;DHT22;30270;40.238;18.256;2022-11-20T08:56:12;19.90;99.90
44559;DHT22;30270;40.238;18.256;2022-11-20T08:58:40;20.00;99.90
44559;DHT22;30270;40.238;18.256;2022-11-20T09:01:22;20.10;99.90
44559;DHT22;30270;40.238;18.256;2022-11-20T09:03:50;20.20;99.90
44559;DHT22;30270;40.238;18.256;2022-11-20T09:06:18;20.30;99.90
44559;DHT22;30270;40.238;18.256;2022-11-20T09:08:45;20.40;99.90
44559;DHT22;30270;40.238;18.256;2022-11-20T09:11:13;20.60;99.90
44559;DHT22;30270;40.238;18.256;2022-11-20T09:13:41;20.70;99.90
44559;DHT22;30270;40.238;18.256;2022-11-20T09:16:09;20.70;99.90
44559;DHT22;30270;40.238;18.256;2022-11-20T09:18:37;20.70;99.90
44559;DHT22;30270;40.238;18.256;2022-11-20T09:21:08;20.70;99.90
44559;DHT22;30270;40.238;18.256;2022-11-20T09:23:38;20.60;99.90
44559;DHT22;30270;40.238;18.256;2022-11-20T09:26:11;20.50;99.90
44559;DHT22;30270;40.238;18.256;2022-11-20T09:28:39;20.50;99.90
44559;DHT22;30270;40.238;18.256;2022-11-20T09:31:08;20.50;99.90
44559;DHT22;30270;40.238;18.256;2022-11-20T09:33:37;20.40;99.90
44559;DHT22;30270;40.238;18.256;2022-11-20T09:36:05;20.40;99.90
44559;DHT22;30270;40.238;18.256;2022-11-20T09:38:32;20.50;99.90
44559;DHT22;30270;40.238;18.256;2022-11-20T09:41:05;20.50;99.90
44559;DHT22;30270;40.238;18.256;2022-11-20T09:51:44;20.70;99.90
44559;DHT22;30270;40.238;18.256;2022-11-20T09:54:22;20.90;99.90
44559;DHT22;30270;40.238;18.256;2022-11-20T09:57:02;21.00;99.90
44559;DHT22;30270;40.238;18.256;2022-11-20T09:59:42;21.20;99.90
44559;DHT22;30270;40.238;18.256;2022-11-20T10:04:56;21.50;99.90
44559;DHT22;30270;40.238;18.256;2022-11-20T10:10:18;21.70;99.90
44559;DHT22;30270;40.238;18.256;2022-11-20T10:24:07;22.40;99.90
44559;DHT22;30270;40.238;18.256;2022-11-20T10:29:24;22.50;99.90
44559;DHT22;30270;40.238;18.256;2022-11-20T10:32:02;22.50;99.90
44559;DHT22;30270;40.238;18.256;2022-11-20T10:37:27;22.40;99.90
44559;DHT22;30270;40.238;18.256;2022-11-20T10:42:56;22.40;99.90
44559;DHT22;30270;40.238;18.256;2022-11-20T10:48:16;22.60;99.90
44559;DHT22;30270;40.238;18.256;2022-11-20T10:56:17;22.50;99.90
44559;DHT22;30270;40.238;18.256;2022-11-20T11:01:40;22.80;99.90
44559;DHT22;30270;40.238;18.256;2022-11-20T11:07:37;23.20;99.90
44559;DHT22;30270;40.238;18.256;2022-11-20T11:11:02;23.30;99.90
44559;DHT22;30270;40.238;18.256;2022-11-20T11:13:30;23.30;99.90
44559;DHT22;30270;40.238;18.256;2022-11-20T11:15:58;23.40;99.90
44559;DHT22;30270;40.238;18.256;2022-11-20T11:18:29;23.50;99.90
44559;DHT22;30270;40.238;18.256;2022-11-20T11:20:59;23.60;99.90
44559;DHT22;30270;40.238;18.256;2022-11-20T11:26:00;23.60;99.90
44559;DHT22;30270;40.238;18.256;2022-11-20T11:28:28;23.60;99.90
44559;DHT22;30270;40.238;18.256;2022-11-20T11:30:56;23.50;99.90
44559;DHT22;30270;40.238;18.256;2022-11-20T11:33:28;23.30;99.90
44559;DHT22;30270;40.238;18.256;2022-11-20T11:36:04;23.00;99.90
44559;DHT22;30270;40.238;18.256;2022-11-20T11:38:43;22.70;99.90
44559;DHT22;30270;40.238;18.256;2022-11-20T11:41:24;22.40;99.90
44559;DHT22;30270;40.238;18.256;2022-11-20T11:44:20;22.00;99.90
44559;DHT22;30270;40.238;18.256;2022-11-20T11:47:25;21.70;99.90
44559;DHT22;30270;40.238;18.256;2022-11-20T11:52:38;21.10;99.90
44559;DHT22;30270;40.238;18.256;2022-11-20T11:55:19;20.80;99.90
44559;DHT22;30270;40.238;18.256;2022-11-20T11:57:55;20.50;99.90
44559;DHT22;30270;40.238;18.256;2022-11-20T12:00:25;20.40;99.90
44559;DHT22;30270;40.238;18.256;2022-11-20T12:03:05;20.20;99.90
44559;DHT22;30270;40.238;18.256;2022-11-20T12:05:42;20.00;99.90
44559;DHT22;30270;40.238;18.256;2022-11-20T12:08:29;19.90;99.90
44559;DHT22;30270;40.238;18.256;2022-11-20T12:16:13;19.40;99.90
44559;DHT22;30270;40.238;18.256;2022-11-20T12:18:42;19.20;99.90
44559;DHT22;30270;40.238;18.256;2022-11-20T12:21:18;19.10;99.90
44559;DHT22;30270;40.238;18.256;2022-11-20T12:29:09;18.50;99.90
44559;DHT22;30270;40.238;18.256;2022-11-20T12:31:59;18.40;99.90
44559;DHT22;30270;40.238;18.256;2022-11-20T12:43:01;17.80;99.90
44559;DHT22;30270;40.238;18.256;2022-11-20T12:59:17;16.40;99.90
44559;DHT22;30270;40.238;18.256;2022-11-20T13:07:47;16.60;99.90
44559;DHT22;30270;40.238;18.256;2022-11-20T13:10:23;16.90;99.90
44559;DHT22;30270;40.238;18.256;2022-11-20T13:13:23;17.10;99.90
44559;DHT22;30270;40.238;18.256;2022-11-20T13:16:15;17.30;99.90
44559;DHT22;30270;40.238;18.256;2022-11-20T13:18:41;17.50;99.90
44559;DHT22;30270;40.238;18.256;2022-11-20T13:21:19;17.60;99.90
44559;DHT22;30270;40.238;18.256;2022-11-20T13:23:47;17.80;99.90
44559;DHT22;30270;40.238;18.256;2022-11-20T13:26:20;17.80;99.90
44559;DHT22;30270;40.238;18.256;2022-11-20T13:29:09;17.90;99.90
44559;DHT22;30270;40.238;18.256;2022-11-20T13:31:42;17.90;99.90
44559;DHT22;30270;40.238;18.256;2022-11-20T13:34:34;17.90;99.90
44559;DHT22;30270;40.238;18.256;2022-11-20T13:37:00;17.90;99.90
44559;DHT22;30270;40.238;18.256;2022-11-20T13:39:35;17.90;99.90
44559;DHT22;30270;40.238;18.256;2022-11-20T13:42:24;17.90;99.90
44559;DHT22;30270;40.238;18.256;2022-11-20T13:45:00;17.90;99.90
44559;DHT22;30270;40.238;18.256;2022-11-20T13:47:29;17.90;99.90
44559;DHT22;30270;40.238;18.256;2022-11-20T13:49:58;17.90;99.90
44559;DHT22;30270;40.238;18.256;2022-11-20T13:52:49;17.90;99.90
44559;DHT22;30270;40.238;18.256;2022-11-20T14:01:10;17.40;99.90
44559;DHT22;30270;40.238;18.256;2022-11-20T14:03:39;17.10;99.90
44559;DHT22;30270;40.238;18.256;2022-11-20T14:06:32;17.10;99.90
44559;DHT22;30270;40.238;18.256;2022-11-20T14:09:01;17.00;99.90
44559;DHT22;30270;40.238;18.256;2022-11-20T14:11:30;17.00;99.90
44559;DHT22;30270;40.238;18.256;2022-11-20T14:14:04;17.10;99.90
44559;DHT22;30270;40.238;18.256;2022-11-20T14:16:34;17.00;99.90
44559;DHT22;30270;40.238;18.256;2022-11-20T14:19:24;16.90;99.90
44559;DHT22;30270;40.238;18.256;2022-11-20T14:22:21;16.60;99.90
44559;DHT22;30270;40.238;18.256;2022-11-20T14:27:59;16.60;99.90
44559;DHT22;30270;40.238;18.256;2022-11-20T14:30:45;16.70;99.90
44559;DHT22;30270;40.238;18.256;2022-11-20T14:33:14;16.90;99.90
44559;DHT22;30270;40.238;18.256;2022-11-20T14:35:47;17.00;99.90
44559;DHT22;30270;40.238;18.256;2022-11-20T14:38:18;17.20;99.90
44559;DHT22;30270;40.238;18.256;2022-11-20T14:40:47;17.30;99.90
44559;DHT22;30270;40.238;18.256;2022-11-20T14:43:27;17.40;99.90
44559;DHT22;30270;40.238;18.256;2022-11-20T14:46:07;17.40;99.90
44559;DHT22;30270;40.238;18.256;2022-11-20T14:48:47;17.50;99.90
44559;DHT22;30270;40.238;18.256;2022-11-20T14:54:18;17.60;99.90
44559;DHT22;30270;40.238;18.256;2022-11-20T14:57:01;17.60;99.90
44559;DHT22;30270;40.238;18.256;2022-11-20T14:59:31;17.50;99.90
44559;DHT22;30270;40.238;18.256;2022-11-20T15:04:29;17.40;99.90
44559;DHT22;30270;40.238;18.256;2022-11-20T15:06:59;17.30;99.90
44559;DHT22;30270;40.238;18.256;2022-11-20T15:09:27;17.10;99.90
44559;DHT22;30270;40.238;18.256;2022-11-20T15:12:00;16.90;99.90
44559;DHT22;30270;40.238;18.256;2022-11-20T15:14:30;16.80;99.90
44559;DHT22;30270;40.238;18.256;2022-11-20T15:16:59;16.80;99.90
44559;DHT22;30270;40.238;18.256;2022-11-20T15:19:27;16.70;99.90
44559;DHT22;30270;40.238;18.256;2022-11-20T15:21:55;16.60;99.90
44559;DHT22;30270;40.238;18.256;2022-11-20T15:24:22;16.50;99.90
44559;DHT22;30270;40.238;18.256;2022-11-20T15:26:50;16.60;99.90
44559;DHT22;30270;40.238;18.256;2022-11-20T15:29:18;16.50;99.90
44559;DHT22;30270;40.238;18.256;2022-11-20T15:31:48;16.50;99.90
44559;DHT22;30270;40.238;18.256;2022-11-20T15:34:15;16.50;99.90
44559;DHT22;30270;40.238;18.256;2022-11-20T15:36:43;16.50;99.90
44559;DHT22;30270;40.238;18.256;2022-11-20T15:39:11;16.50;99.90
44559;DHT22;30270;40.238;18.256;2022-11-20T15:41:39;16.50;99.90
44559;DHT22;30270;40.238;18.256;2022-11-20T15:44:08;16.40;99.90
44559;DHT22;30270;40.238;18.256;2022-11-20T15:46:37;16.40;99.90
44559;DHT22;30270;40.238;18.256;2022-11-20T15:49:13;16.30;99.90
44559;DHT22;30270;40.238;18.256;2022-11-20T15:51:43;16.20;99.90
44559;DHT22;30270;40.238;18.256;2022-11-20T15:54:21;16.20;99.90
44559;DHT22;30270;40.238;18.256;2022-11-20T15:56:50;16.20;99.90
44559;DHT22;30270;40.238;18.256;2022-11-20T15:59:21;16.20;99.90
44559;DHT22;30270;40.238;18.256;2022-11-20T16:01:49;16.20;99.90
44559;DHT22;30270;40.238;18.256;2022-11-20T16:04:17;16.10;99.90
44559;DHT22;30270;40.238;18.256;2022-11-20T16:06:45;16.10;99.90
44559;DHT22;30270;40.238;18.256;2022-11-20T16:09:13;16.10;99.90
44559;DHT22;30270;40.238;18.256;2022-11-20T16:11:42;16.10;99.90
44559;DHT22;30270;40.238;18.256;2022-11-20T16:14:11;16.20;99.90
44559;DHT22;30270;40.238;18.256;2022-11-20T16:16:57;16.20;99.90
44559;DHT22;30270;40.238;18.256;2022-11-20T16:19:25;16.30;99.90
44559;DHT22;30270;40.238;18.256;2022-11-20T16:21:53;16.30;99.90
44559;DHT22;30270;40.238;18.256;2022-11-20T16:24:23;16.30;99.90
44559;DHT22;30270;40.238;18.256;2022-11-20T16:26:54;16.40;99.90
44559;DHT22;30270;40.238;18.256;2022-11-20T16:29:22;16.40;99.90
44559;DHT22;30270;40.238;18.256;2022-11-20T16:31:50;16.50;99.90
44559;DHT22;30270;40.238;18.256;2022-11-20T16:34:18;16.50;99.90
44559;DHT22;30270;40.238;18.256;2022-11-20T16:36:45;16.60;99.90
44559;DHT22;30270;40.238;18.256;2022-11-20T16:39:14;16.60;99.90
44559;DHT22;30270;40.238;18.256;2022-11-20T16:41:45;16.60;99.90
44559;DHT22;30270;40.238;18.256;2022-11-20T16:44:12;16.60;99.90
44559;DHT22;30270;40.238;18.256;2022-11-20T16:46:41;16.50;99.90
44559;DHT22;30270;40.238;18.256;2022-11-20T16:49:13;16.50;99.90
44559;DHT22;30270;40.238;18.256;2022-11-20T16:51:40;16.50;99.90
44559;DHT22;30270;40.238;18.256;2022-11-20T16:54:09;16.40;99.90
44559;DHT22;30270;40.238;18.256;2022-11-20T16:56:37;16.40;99.90
44559;DHT22;30270;40.238;18.256;2022-11-20T16:59:05;16.40;99.90
44559;DHT22;30270;40.238;18.256;2022-11-20T17:01:34;16.40;99.90
44559;DHT22;30270;40.238;18.256;2022-11-20T17:04:05;16.40;99.90
44559;DHT22;30270;40.238;18.256;2022-11-20T17:06:41;16.40;99.90
44559;DHT22;30270;40.238;18.256;2022-11-20T17:09:14;16.40;99.90
44559;DHT22;30270;40.238;18.256;2022-11-20T17:11:42;16.40;99.90
44559;DHT22;30270;40.238;18.256;2022-11-20T17:14:11;16.40;99.90
44559;DHT22;30270;40.238;18.256;2022-11-20T17:16:39;16.40;99.90
44559;DHT22;30270;40.238;18.256;2022-11-20T17:19:08;16.40;99.90
44559;DHT22;30270;40.238;18.256;2022-11-20T17:21:36;16.40;99.90
44559;DHT22;30270;40.238;18.256;2022-11-20T17:24:08;16.30;99.90
44559;DHT22;30270;40.238;18.256;2022-11-20T17:26:39;16.20;99.90
44559;DHT22;30270;40.238;18.256;2022-11-20T17:29:09;16.20;99.90
44559;DHT22;30270;40.238;18.256;2022-11-20T17:31:38;16.20;99.90
44559;DHT22;30270;40.238;18.256;2022-11-20T17:34:08;16.20;99.90
44559;DHT22;30270;40.238;18.256;2022-11-20T17:36:37;16.20;99.90
44559;DHT22;30270;40.238;18.256;2022-11-20T17:39:13;16.30;99.90
44559;DHT22;30270;40.238;18.256;2022-11-20T17:41:41;16.30;99.90